sensor_id;sensor_type;location;lat;lon;timestamp;pressure;altitude;pressure_sealevel;temperature;humidity
35918;BME280;22011;59.912;30.300;2023-05-20T00:01:10;103163.81;;;11.89;66.95
35918;BME280;22011;59.912;30.300;2023-05-20T00:03:38;103154.94;;;11.88;67.04
35918;BME280;22011;59.912;30.300;2023-05-20T00:06:05;103162.22;;;11.86;67.23
35918;BME280;22011;59.912;30.300;2023-05-20T00:08:33;103165.88;;;11.85;67.36
35918;BME280;22011;59.912;30.300;2023-05-20T00:11:01;103168.19;;;11.90;67.71
35918;BME280;22011;59.912;30.300;2023-05-20T00:13:29;103172.06;;;11.86;67.57
35918;BME280;22011;59.912;30.300;2023-05-20T00:15:56;103169.38;;;11.86;68.00
35918;BME280;22011;59.912;30.300;2023-05-20T00:18:24;103168.03;;;11.80;68.33
35918;BME280;22011;59.912;30.300;2023-05-20T00:20:51;103168.44;;;11.74;68.56
35918;BME280;22011;59.912;30.300;2023-05-20T00:23:19;103169.31;;;11.74;69.17
35918;BME280;22011;59.912;30.300;2023-05-20T00:25:46;103169.41;;;11.73;69.26
35918;BME280;22011;59.912;30.300;2023-05-20T00:28:15;103173.78;;;11.74;69.75
35918;BME280;22011;59.912;30.300;2023-05-20T00:30:43;103171.56;;;11.68;69.34
35918;BME280;22011;59.912;30.300;2023-05-20T00:33:11;103170.94;;;11.64;69.64
35918;BME280;22011;59.912;30.300;2023-05-20T00:35:38;103170.31;;;11.61;69.85
35918;BME280;22011;59.912;30.300;2023-05-20T00:38:06;103175.78;;;11.59;70.03
35918;BME280;22011;59.912;30.300;2023-05-20T00:40:33;103172.66;;;11.65;70.06
35918;BME280;22011;59.912;30.300;2023-05-20T00:43:01;103173.50;;;11.66;70.02
35918;BME280;22011;59.912;30.300;2023-05-20T00:45:29;103172.66;;;11.65;70.06
35918;BME280;22011;59.912;30.300;2023-05-20T00:47:57;103174.69;;;11.62;69.97
35918;BME280;22011;59.912;30.300;2023-05-20T00:50:26;103168.72;;;11.58;69.54
35918;BME280;22011;59.912;30.300;2023-05-20T00:52:54;103167.88;;;11.58;69.59
35918;BME280;22011;59.912;30.300;2023-05-20T00:55:22;103176.97;;;11.55;69.64
35918;BME280;22011;59.912;30.300;2023-05-20T00:57:49;103175.25;;;11.54;69.14
35918;BME280;22011;59.912;30.300;2023-05-20T01:00:18;103180.94;;;11.50;69.23
35918;BME280;22011;59.912;30.300;2023-05-20T01:02:47;103181.78;;;11.50;69.15
35918;BME280;22011;59.912;30.300;2023-05-20T01:05:14;103182.63;;;11.51;69.11
35918;BME280;22011;59.912;30.300;2023-05-20T01:07:42;103183.28;;;11.54;68.96
35918;BME280;22011;59.912;30.300;2023-05-20T01:10:09;103179.75;;;11.54;68.70
35918;BME280;22011;59.912;30.300;2023-05-20T01:12:40;103188.16;;;11.60;68.62
35918;BME280;22011;59.912;30.300;2023-05-20T01:15:10;103188.28;;;11.59;68.84
35918;BME280;22011;59.912;30.300;2023-05-20T01:17:40;103189.00;;;11.61;68.84
35918;BME280;22011;59.912;30.300;2023-05-20T01:20:13;103193.50;;;11.60;68.89
35918;BME280;22011;59.912;30.300;2023-05-20T01:22:48;103191.13;;;11.68;69.42
35918;BME280;22011;59.912;30.300;2023-05-20T01:25:15;103196.41;;;11.57;68.83
35918;BME280;22011;59.912;30.300;2023-05-20T01:27:45;103193.84;;;11.56;69.01
35918;BME280;22011;59.912;30.300;2023-05-20T01:30:14;103193.09;;;11.54;69.21
35918;BME280;22011;59.912;30.300;2023-05-20T01:32:45;103197.34;;;11.56;69.05
35918;BME280;22011;59.912;30.300;2023-05-20T01:35:15;103190.44;;;11.54;68.50
35918;BME280;22011;59.912;30.300;2023-05-20T01:37:43;103193.22;;;11.52;68.23
35918;BME280;22011;59.912;30.300;2023-05-20T01:40:14;103194.91;;;11.53;68.89
35918;BME280;22011;59.912;30.300;2023-05-20T01:42:43;103189.91;;;11.48;68.16
35918;BME280;22011;59.912;30.300;2023-05-20T01:45:11;103187.75;;;11.54;67.94
35918;BME280;22011;59.912;30.300;2023-05-20T01:47:39;103191.16;;;11.56;68.24
35918;BME280;22011;59.912;30.300;2023-05-20T01:50:07;103196.28;;;11.59;67.83
35918;BME280;22011;59.912;30.300;2023-05-20T01:52:35;103203.56;;;11.57;68.17
35918;BME280;22011;59.912;30.300;2023-05-20T01:55:02;103202.81;;;11.55;68.01
35918;BME280;22011;59.912;30.300;2023-05-20T01:57:31;103211.03;;;11.52;68.04
35918;BME280;22011;59.912;30.300;2023-05-20T01:59:59;103207.84;;;11.46;67.92
35918;BME280;22011;59.912;30.300;2023-05-20T02:02:26;103209.78;;;11.44;67.83
35918;BME280;22011;59.912;30.300;2023-05-20T02:04:54;103210.03;;;11.41;67.85
35918;BME280;22011;59.912;30.300;2023-05-20T02:07:21;103214.41;;;11.42;67.69
35918;BME280;22011;59.912;30.300;2023-05-20T02:09:48;103220.94;;;11.38;67.18
35918;BME280;22011;59.912;30.300;2023-05-20T02:12:16;103217.41;;;11.38;66.93
35918;BME280;22011;59.912;30.300;2023-05-20T02:14:46;103219.22;;;11.37;66.59
35918;BME280;22011;59.912;30.300;2023-05-20T02:17:15;103224.03;;;11.32;66.37
35918;BME280;22011;59.912;30.300;2023-05-20T02:19:44;103234.63;;;11.21;66.53
35918;BME280;22011;59.912;30.300;2023-05-20T02:22:11;103223.97;;;11.21;66.31
35918;BME280;22011;59.912;30.300;2023-05-20T02:24:39;103220.34;;;11.22;66.34
35918;BME280;22011;59.912;30.300;2023-05-20T02:27:08;103229.41;;;11.20;66.44
35918;BME280;22011;59.912;30.300;2023-05-20T02:29:36;103228.03;;;11.14;66.50
35918;BME280;22011;59.912;30.300;2023-05-20T02:32:05;103230.59;;;11.16;66.49
35918;BME280;22011;59.912;30.300;2023-05-20T02:34:34;103235.72;;;11.19;65.99
35918;BME280;22011;59.912;30.300;2023-05-20T02:37:01;103233.03;;;11.19;66.26
35918;BME280;22011;59.912;30.300;2023-05-20T02:39:29;103233.78;;;11.21;65.88
35918;BME280;22011;59.912;30.300;2023-05-20T02:41:56;103234.41;;;11.24;66.05
35918;BME280;22011;59.912;30.300;2023-05-20T02:44:24;103229.59;;;11.29;65.84
35918;BME280;22011;59.912;30.300;2023-05-20T02:46:51;103233.75;;;11.33;65.60
35918;BME280;22011;59.912;30.300;2023-05-20T02:49:22;103232.56;;;11.37;65.50
35918;BME280;22011;59.912;30.300;2023-05-20T02:51:50;103235.25;;;11.37;65.21
35918;BME280;22011;59.912;30.300;2023-05-20T02:54:17;103240.59;;;11.37;65.86
35918;BME280;22011;59.912;30.300;2023-05-20T02:56:45;103244.44;;;11.33;65.80
35918;BME280;22011;59.912;30.300;2023-05-20T02:59:12;103244.44;;;11.33;66.08
35918;BME280;22011;59.912;30.300;2023-05-20T03:01:40;103252.97;;;11.38;65.49
35918;BME280;22011;59.912;30.300;2023-05-20T03:04:08;103242.94;;;11.29;66.21
35918;BME280;22011;59.912;30.300;2023-05-20T03:06:38;103248.91;;;11.33;66.45
35918;BME280;22011;59.912;30.300;2023-05-20T03:09:09;103241.22;;;11.41;66.00
35918;BME280;22011;59.912;30.300;2023-05-20T03:11:37;103249.13;;;11.42;65.84
35918;BME280;22011;59.912;30.300;2023-05-20T03:14:04;103250.56;;;11.46;65.70
35918;BME280;22011;59.912;30.300;2023-05-20T03:16:33;103248.66;;;11.48;65.88
35918;BME280;22011;59.912;30.300;2023-05-20T03:19:01;103254.19;;;11.45;66.30
35918;BME280;22011;59.912;30.300;2023-05-20T03:21:28;103256.38;;;11.40;65.90
35918;BME280;22011;59.912;30.300;2023-05-20T03:23:58;103255.31;;;11.43;66.31
35918;BME280;22011;59.912;30.300;2023-05-20T03:26:25;103254.69;;;11.39;66.21
35918;BME280;22011;59.912;30.300;2023-05-20T03:28:53;103265.78;;;11.33;66.21
35918;BME280;22011;59.912;30.300;2023-05-20T03:31:21;103265.47;;;11.38;65.79
35918;BME280;22011;59.912;30.300;2023-05-20T03:33:49;103267.66;;;11.44;65.80
35918;BME280;22011;59.912;30.300;2023-05-20T03:36:17;103261.03;;;11.50;65.68
35918;BME280;22011;59.912;30.300;2023-05-20T03:38:44;103268.59;;;11.56;65.35
35918;BME280;22011;59.912;30.300;2023-05-20T03:41:13;103261.34;;;11.58;65.67
35918;BME280;22011;59.912;30.300;2023-05-20T03:43:41;103267.63;;;11.57;65.56
35918;BME280;22011;59.912;30.300;2023-05-20T03:46:08;103266.56;;;11.59;65.34
35918;BME280;22011;59.912;30.300;2023-05-20T03:48:36;103258.56;;;11.59;65.01
35918;BME280;22011;59.912;30.300;2023-05-20T03:51:03;103264.22;;;11.55;64.89
35918;BME280;22011;59.912;30.300;2023-05-20T03:53:31;103263.78;;;11.61;64.95
35918;BME280;22011;59.912;30.300;2023-05-20T03:56:00;103271.69;;;11.62;65.12
35918;BME280;22011;59.912;30.300;2023-05-20T03:58:28;103272.94;;;11.69;65.06
35918;BME280;22011;59.912;30.300;2023-05-20T04:00:56;103269.41;;;11.69;64.79
35918;BME280;22011;59.912;30.300;2023-05-20T04:03:24;103259.47;;;11.71;64.87
35918;BME280;22011;59.912;30.300;2023-05-20T04:05:53;103259.13;;;11.75;65.15
35918;BME280;22011;59.912;30.300;2023-05-20T04:08:21;103269.53;;;11.80;64.82
35918;BME280;22011;59.912;30.300;2023-05-20T04:10:54;103272.50;;;11.88;65.26
35918;BME280;22011;59.912;30.300;2023-05-20T04:13:23;103270.56;;;11.90;64.53
35918;BME280;22011;59.912;30.300;2023-05-20T04:15:52;103267.31;;;11.98;64.52
35918;BME280;22011;59.912;30.300;2023-05-20T04:18:20;103265.50;;;11.98;64.45
35918;BME280;22011;59.912;30.300;2023-05-20T04:20:47;103266.97;;;12.02;64.60
35918;BME280;22011;59.912;30.300;2023-05-20T04:23:16;103267.72;;;12.04;64.52
35918;BME280;22011;59.912;30.300;2023-05-20T04:25:43;103272.38;;;12.14;63.89
35918;BME280;22011;59.912;30.300;2023-05-20T04:28:11;103264.66;;;12.22;63.83
35918;BME280;22011;59.912;30.300;2023-05-20T04:30:41;103273.78;;;12.30;63.34
35918;BME280;22011;59.912;30.300;2023-05-20T04:33:13;103272.97;;;12.41;63.51
35918;BME280;22011;59.912;30.300;2023-05-20T04:35:41;103267.66;;;12.52;62.51
35918;BME280;22011;59.912;30.300;2023-05-20T04:38:09;103267.69;;;12.63;61.78
35918;BME280;22011;59.912;30.300;2023-05-20T04:40:36;103269.66;;;12.72;62.10
35918;BME280;22011;59.912;30.300;2023-05-20T04:43:04;103271.00;;;12.78;61.50
35918;BME280;22011;59.912;30.300;2023-05-20T04:45:31;103263.59;;;12.82;61.58
35918;BME280;22011;59.912;30.300;2023-05-20T04:48:00;103261.53;;;12.85;61.17
35918;BME280;22011;59.912;30.300;2023-05-20T04:50:30;103270.31;;;12.98;61.42
35918;BME280;22011;59.912;30.300;2023-05-20T04:52:58;103265.31;;;13.05;60.39
35918;BME280;22011;59.912;30.300;2023-05-20T04:55:27;103266.81;;;13.20;60.16
35918;BME280;22011;59.912;30.300;2023-05-20T04:57:55;103263.53;;;13.28;59.84
35918;BME280;22011;59.912;30.300;2023-05-20T05:00:23;103272.06;;;13.33;59.51
35918;BME280;22011;59.912;30.300;2023-05-20T05:02:50;103268.16;;;13.48;58.50
35918;BME280;22011;59.912;30.300;2023-05-20T05:05:18;103276.50;;;13.55;58.01
35918;BME280;22011;59.912;30.300;2023-05-20T05:07:47;103265.81;;;13.55;58.61
35918;BME280;22011;59.912;30.300;2023-05-20T05:10:15;103261.41;;;13.54;58.24
35918;BME280;22011;59.912;30.300;2023-05-20T05:12:42;103266.63;;;13.66;57.76
35918;BME280;22011;59.912;30.300;2023-05-20T05:15:10;103261.41;;;13.65;57.44
35918;BME280;22011;59.912;30.300;2023-05-20T05:17:38;103263.84;;;13.68;57.66
35918;BME280;22011;59.912;30.300;2023-05-20T05:20:07;103264.56;;;13.70;58.04
35918;BME280;22011;59.912;30.300;2023-05-20T05:22:35;103269.19;;;13.68;57.59
35918;BME280;22011;59.912;30.300;2023-05-20T05:25:07;103269.41;;;13.76;57.59
35918;BME280;22011;59.912;30.300;2023-05-20T05:27:35;103262.47;;;13.73;57.02
35918;BME280;22011;59.912;30.300;2023-05-20T05:30:04;103274.44;;;13.69;57.27
35918;BME280;22011;59.912;30.300;2023-05-20T05:32:32;103268.34;;;13.67;57.46
35918;BME280;22011;59.912;30.300;2023-05-20T05:35:00;103262.50;;;13.62;57.24
35918;BME280;22011;59.912;30.300;2023-05-20T05:37:28;103266.03;;;13.63;57.54
35918;BME280;22011;59.912;30.300;2023-05-20T05:39:55;103266.00;;;13.74;57.06
35918;BME280;22011;59.912;30.300;2023-05-20T05:42:24;103277.06;;;13.92;56.52
35918;BME280;22011;59.912;30.300;2023-05-20T05:44:53;103261.34;;;13.87;56.69
35918;BME280;22011;59.912;30.300;2023-05-20T05:47:20;103269.63;;;13.95;56.77
35918;BME280;22011;59.912;30.300;2023-05-20T05:49:48;103265.34;;;13.93;56.52
35918;BME280;22011;59.912;30.300;2023-05-20T05:52:16;103261.56;;;13.95;57.08
35918;BME280;22011;59.912;30.300;2023-05-20T05:54:44;103258.91;;;13.95;56.70
35918;BME280;22011;59.912;30.300;2023-05-20T05:57:11;103258.25;;;14.03;56.69
35918;BME280;22011;59.912;30.300;2023-05-20T05:59:41;103265.41;;;14.14;56.83
35918;BME280;22011;59.912;30.300;2023-05-20T06:02:08;103254.06;;;14.21;56.67
35918;BME280;22011;59.912;30.300;2023-05-20T06:04:36;103265.25;;;14.26;56.07
35918;BME280;22011;59.912;30.300;2023-05-20T06:07:04;103261.19;;;14.32;55.93
35918;BME280;22011;59.912;30.300;2023-05-20T06:09:31;103261.06;;;14.33;55.30
35918;BME280;22011;59.912;30.300;2023-05-20T06:11:59;103261.91;;;14.34;55.58
35918;BME280;22011;59.912;30.300;2023-05-20T06:14:27;103257.63;;;14.43;54.78
35918;BME280;22011;59.912;30.300;2023-05-20T06:16:56;103262.13;;;14.63;54.62
35918;BME280;22011;59.912;30.300;2023-05-20T06:19:24;103256.63;;;14.64;54.31
35918;BME280;22011;59.912;30.300;2023-05-20T06:21:51;103258.78;;;14.70;54.33
35918;BME280;22011;59.912;30.300;2023-05-20T06:24:18;103255.72;;;14.75;54.32
35918;BME280;22011;59.912;30.300;2023-05-20T06:26:46;103257.75;;;14.83;54.09
35918;BME280;22011;59.912;30.300;2023-05-20T06:29:15;103264.28;;;14.90;53.69
35918;BME280;22011;59.912;30.300;2023-05-20T06:31:42;103256.69;;;14.95;53.27
35918;BME280;22011;59.912;30.300;2023-05-20T06:34:11;103260.41;;;15.03;53.13
35918;BME280;22011;59.912;30.300;2023-05-20T06:36:39;103252.22;;;15.05;52.93
35918;BME280;22011;59.912;30.300;2023-05-20T06:39:08;103253.72;;;14.98;52.77
35918;BME280;22011;59.912;30.300;2023-05-20T06:41:38;103256.16;;;15.01;52.97
35918;BME280;22011;59.912;30.300;2023-05-20T06:44:09;103252.25;;;15.15;52.53
35918;BME280;22011;59.912;30.300;2023-05-20T06:47:05;103257.56;;;15.35;52.24
35918;BME280;22011;59.912;30.300;2023-05-20T06:49:34;103260.97;;;15.37;52.19
35918;BME280;22011;59.912;30.300;2023-05-20T06:52:02;103262.00;;;15.46;52.06
35918;BME280;22011;59.912;30.300;2023-05-20T06:54:30;103254.94;;;15.55;51.60
35918;BME280;22011;59.912;30.300;2023-05-20T06:56:59;103247.34;;;15.69;50.82
35918;BME280;22011;59.912;30.300;2023-05-20T06:59:26;103251.75;;;15.80;50.21
35918;BME280;22011;59.912;30.300;2023-05-20T07:01:54;103253.31;;;15.92;50.41
35918;BME280;22011;59.912;30.300;2023-05-20T07:04:21;103254.91;;;16.05;49.90
35918;BME280;22011;59.912;30.300;2023-05-20T07:06:50;103255.47;;;16.27;48.81
35918;BME280;22011;59.912;30.300;2023-05-20T07:09:19;103256.59;;;16.25;48.89
35918;BME280;22011;59.912;30.300;2023-05-20T07:11:46;103255.47;;;16.18;48.85
35918;BME280;22011;59.912;30.300;2023-05-20T07:14:16;103251.06;;;16.07;48.89
35918;BME280;22011;59.912;30.300;2023-05-20T07:16:44;103249.38;;;16.16;48.31
35918;BME280;22011;59.912;30.300;2023-05-20T07:19:12;103242.44;;;16.13;48.67
35918;BME280;22011;59.912;30.300;2023-05-20T07:21:39;103251.66;;;16.20;47.66
35918;BME280;22011;59.912;30.300;2023-05-20T07:24:08;103263.25;;;16.30;48.03
35918;BME280;22011;59.912;30.300;2023-05-20T07:26:36;103256.75;;;16.33;46.78
35918;BME280;22011;59.912;30.300;2023-05-20T07:29:06;103257.59;;;16.43;46.38
35918;BME280;22011;59.912;30.300;2023-05-20T07:31:37;103258.13;;;16.56;45.88
35918;BME280;22011;59.912;30.300;2023-05-20T07:34:04;103257.00;;;16.59;45.55
35918;BME280;22011;59.912;30.300;2023-05-20T07:36:32;103253.88;;;16.63;45.48
35918;BME280;22011;59.912;30.300;2023-05-20T07:39:04;103251.75;;;16.67;45.09
35918;BME280;22011;59.912;30.300;2023-05-20T07:41:36;103249.31;;;16.74;45.49
35918;BME280;22011;59.912;30.300;2023-05-20T07:44:05;103245.06;;;16.71;44.75
35918;BME280;22011;59.912;30.300;2023-05-20T07:46:35;103249.19;;;16.75;44.72
35918;BME280;22011;59.912;30.300;2023-05-20T07:49:05;103246.03;;;16.89;44.54
35918;BME280;22011;59.912;30.300;2023-05-20T07:51:33;103247.72;;;16.90;45.07
35918;BME280;22011;59.912;30.300;2023-05-20T07:54:01;103246.84;;;16.99;44.03
35918;BME280;22011;59.912;30.300;2023-05-20T07:56:29;103251.22;;;17.00;42.94
35918;BME280;22011;59.912;30.300;2023-05-20T07:58:59;103254.63;;;17.03;43.04
35918;BME280;22011;59.912;30.300;2023-05-20T08:01:32;103241.03;;;16.94;42.85
35918;BME280;22011;59.912;30.300;2023-05-20T08:04:00;103247.53;;;17.02;43.05
35918;BME280;22011;59.912;30.300;2023-05-20T08:06:28;103242.81;;;17.13;42.65
35918;BME280;22011;59.912;30.300;2023-05-20T08:08:57;103238.94;;;17.25;42.96
35918;BME280;22011;59.912;30.300;2023-05-20T08:11:30;103241.13;;;17.40;42.90
35918;BME280;22011;59.912;30.300;2023-05-20T08:14:00;103239.25;;;17.50;42.81
35918;BME280;22011;59.912;30.300;2023-05-20T08:16:31;103222.06;;;17.51;42.26
35918;BME280;22011;59.912;30.300;2023-05-20T08:18:59;103221.53;;;17.47;42.43
35918;BME280;22011;59.912;30.300;2023-05-20T08:21:26;103220.38;;;17.50;42.42
35918;BME280;22011;59.912;30.300;2023-05-20T08:23:54;103218.63;;;17.58;42.70
35918;BME280;22011;59.912;30.300;2023-05-20T08:26:22;103220.59;;;17.66;42.23
35918;BME280;22011;59.912;30.300;2023-05-20T08:28:50;103222.56;;;17.82;42.00
35918;BME280;22011;59.912;30.300;2023-05-20T08:31:20;103228.28;;;17.96;41.77
35918;BME280;22011;59.912;30.300;2023-05-20T08:33:47;103224.50;;;17.72;41.36
35918;BME280;22011;59.912;30.300;2023-05-20T08:36:15;103224.13;;;17.67;41.73
35918;BME280;22011;59.912;30.300;2023-05-20T08:38:46;103230.13;;;17.78;41.55
35918;BME280;22011;59.912;30.300;2023-05-20T08:41:14;103222.34;;;17.75;41.46
35918;BME280;22011;59.912;30.300;2023-05-20T08:43:45;103223.03;;;17.77;41.79
35918;BME280;22011;59.912;30.300;2023-05-20T08:46:12;103221.34;;;17.76;41.75
35918;BME280;22011;59.912;30.300;2023-05-20T08:48:41;103219.25;;;17.88;42.03
35918;BME280;22011;59.912;30.300;2023-05-20T08:51:10;103219.13;;;17.89;41.47
35918;BME280;22011;59.912;30.300;2023-05-20T08:53:38;103222.88;;;17.96;41.15
35918;BME280;22011;59.912;30.300;2023-05-20T08:56:07;103218.88;;;18.01;41.49
35918;BME280;22011;59.912;30.300;2023-05-20T08:58:35;103219.88;;;18.00;41.69
35918;BME280;22011;59.912;30.300;2023-05-20T09:01:03;103212.88;;;18.07;41.97
35918;BME280;22011;59.912;30.300;2023-05-20T09:03:31;103221.59;;;18.01;41.96
35918;BME280;22011;59.912;30.300;2023-05-20T09:06:05;103221.41;;;18.20;42.96
35918;BME280;22011;59.912;30.300;2023-05-20T09:08:33;103209.47;;;18.05;42.61
35918;BME280;22011;59.912;30.300;2023-05-20T09:11:01;103214.50;;;18.00;42.25
35918;BME280;22011;59.912;30.300;2023-05-20T09:13:29;103216.19;;;18.01;42.86
35918;BME280;22011;59.912;30.300;2023-05-20T09:15:58;103216.50;;;18.15;43.17
35918;BME280;22011;59.912;30.300;2023-05-20T09:18:26;103210.56;;;18.12;43.25
35918;BME280;22011;59.912;30.300;2023-05-20T09:20:54;103207.22;;;18.18;42.78
35918;BME280;22011;59.912;30.300;2023-05-20T09:23:23;103214.47;;;18.17;42.66
35918;BME280;22011;59.912;30.300;2023-05-20T09:25:52;103197.50;;;18.25;42.35
35918;BME280;22011;59.912;30.300;2023-05-20T09:28:22;103197.00;;;18.47;42.66
35918;BME280;22011;59.912;30.300;2023-05-20T09:30:50;103195.28;;;18.64;41.72
35918;BME280;22011;59.912;30.300;2023-05-20T09:33:17;103187.09;;;18.82;39.87
35918;BME280;22011;59.912;30.300;2023-05-20T09:35:46;103191.91;;;18.96;39.73
35918;BME280;22011;59.912;30.300;2023-05-20T09:38:14;103183.81;;;19.04;39.27
35918;BME280;22011;59.912;30.300;2023-05-20T09:40:44;103197.66;;;19.01;39.00
35918;BME280;22011;59.912;30.300;2023-05-20T09:43:14;103189.75;;;18.74;39.60
35918;BME280;22011;59.912;30.300;2023-05-20T09:45:43;103191.94;;;18.70;39.63
35918;BME280;22011;59.912;30.300;2023-05-20T09:48:11;103186.94;;;18.57;39.57
35918;BME280;22011;59.912;30.300;2023-05-20T09:50:39;103190.94;;;18.71;39.17
35918;BME280;22011;59.912;30.300;2023-05-20T09:53:07;103184.34;;;18.66;39.34
35918;BME280;22011;59.912;30.300;2023-05-20T09:55:37;103184.56;;;18.80;39.01
35918;BME280;22011;59.912;30.300;2023-05-20T09:58:07;103191.84;;;18.88;39.93
35918;BME280;22011;59.912;30.300;2023-05-20T10:00:36;103185.03;;;18.68;40.29
35918;BME280;22011;59.912;30.300;2023-05-20T10:03:03;103191.66;;;18.55;39.82
35918;BME280;22011;59.912;30.300;2023-05-20T10:05:32;103201.22;;;18.68;39.45
35918;BME280;22011;59.912;30.300;2023-05-20T10:08:30;103190.19;;;18.95;40.16
35918;BME280;22011;59.912;30.300;2023-05-20T10:11:06;103191.09;;;18.70;40.42
35918;BME280;22011;59.912;30.300;2023-05-20T10:13:56;103183.53;;;18.81;40.34
35918;BME280;22011;59.912;30.300;2023-05-20T10:16:36;103178.47;;;18.78;40.36
35918;BME280;22011;59.912;30.300;2023-05-20T10:19:12;103175.97;;;18.85;40.01
35918;BME280;22011;59.912;30.300;2023-05-20T10:21:44;103179.56;;;18.93;38.46
35918;BME280;22011;59.912;30.300;2023-05-20T10:24:28;103185.88;;;19.10;38.81
35918;BME280;22011;59.912;30.300;2023-05-20T10:26:58;103182.25;;;18.93;38.84
35918;BME280;22011;59.912;30.300;2023-05-20T10:29:27;103183.31;;;19.01;39.56
35918;BME280;22011;59.912;30.300;2023-05-20T10:31:55;103175.03;;;19.02;39.89
35918;BME280;22011;59.912;30.300;2023-05-20T10:34:22;103176.09;;;19.09;39.95
35918;BME280;22011;59.912;30.300;2023-05-20T10:36:57;103175.94;;;19.19;40.58
35918;BME280;22011;59.912;30.300;2023-05-20T10:39:26;103179.75;;;19.00;40.12
35918;BME280;22011;59.912;30.300;2023-05-20T10:42:05;103170.75;;;19.34;40.27
35918;BME280;22011;59.912;30.300;2023-05-20T10:44:41;103166.22;;;19.42;39.04
35918;BME280;22011;59.912;30.300;2023-05-20T10:47:09;103163.13;;;19.21;38.66
35918;BME280;22011;59.912;30.300;2023-05-20T10:49:40;103167.06;;;19.43;39.24
35918;BME280;22011;59.912;30.300;2023-05-20T10:52:08;103168.75;;;19.36;38.38
35918;BME280;22011;59.912;30.300;2023-05-20T10:54:42;103161.16;;;19.47;38.22
35918;BME280;22011;59.912;30.300;2023-05-20T10:57:10;103140.88;;;19.35;37.77
35918;BME280;22011;59.912;30.300;2023-05-20T10:59:39;103146.78;;;19.39;37.40
35918;BME280;22011;59.912;30.300;2023-05-20T11:02:09;103148.53;;;19.56;37.96
35918;BME280;22011;59.912;30.300;2023-05-20T11:04:38;103148.50;;;19.48;38.47
35918;BME280;22011;59.912;30.300;2023-05-20T11:07:05;103149.16;;;19.50;37.83
35918;BME280;22011;59.912;30.300;2023-05-20T11:09:33;103148.66;;;19.46;38.31
35918;BME280;22011;59.912;30.300;2023-05-20T11:12:01;103149.97;;;19.34;38.96
35918;BME280;22011;59.912;30.300;2023-05-20T11:14:28;103149.44;;;19.22;39.49
35918;BME280;22011;59.912;30.300;2023-05-20T11:16:57;103156.84;;;19.12;40.33
35918;BME280;22011;59.912;30.300;2023-05-20T11:19:26;103156.31;;;19.09;39.88
35918;BME280;22011;59.912;30.300;2023-05-20T11:21:53;103146.16;;;19.03;39.96
35918;BME280;22011;59.912;30.300;2023-05-20T11:24:22;103141.78;;;19.10;38.81
35918;BME280;22011;59.912;30.300;2023-05-20T11:26:50;103133.56;;;19.19;38.45
35918;BME280;22011;59.912;30.300;2023-05-20T11:29:19;103139.97;;;19.18;38.02
35918;BME280;22011;59.912;30.300;2023-05-20T11:31:48;103144.56;;;19.26;36.91
35918;BME280;22011;59.912;30.300;2023-05-20T11:34:19;103138.50;;;19.40;36.88
35918;BME280;22011;59.912;30.300;2023-05-20T11:36:54;103143.25;;;19.46;36.89
35918;BME280;22011;59.912;30.300;2023-05-20T11:39:22;103138.34;;;19.50;36.15
35918;BME280;22011;59.912;30.300;2023-05-20T11:41:49;103136.66;;;19.49;36.21
35918;BME280;22011;59.912;30.300;2023-05-20T11:44:18;103135.38;;;19.61;35.89
35918;BME280;22011;59.912;30.300;2023-05-20T11:46:47;103125.56;;;19.68;35.24
35918;BME280;22011;59.912;30.300;2023-05-20T11:49:15;103127.59;;;19.66;34.81
35918;BME280;22011;59.912;30.300;2023-05-20T11:51:43;103121.84;;;19.69;34.27
35918;BME280;22011;59.912;30.300;2023-05-20T11:54:12;103118.09;;;19.78;34.45
35918;BME280;22011;59.912;30.300;2023-05-20T11:56:40;103109.50;;;19.75;34.19
35918;BME280;22011;59.912;30.300;2023-05-20T11:59:08;103114.72;;;19.84;33.77
35918;BME280;22011;59.912;30.300;2023-05-20T12:01:37;103110.16;;;19.85;32.90
35918;BME280;22011;59.912;30.300;2023-05-20T12:04:06;103113.88;;;19.84;33.27
35918;BME280;22011;59.912;30.300;2023-05-20T12:06:34;103113.72;;;19.93;32.34
35918;BME280;22011;59.912;30.300;2023-05-20T12:09:03;103106.78;;;19.99;32.16
35918;BME280;22011;59.912;30.300;2023-05-20T12:11:34;103108.97;;;20.04;32.08
35918;BME280;22011;59.912;30.300;2023-05-20T12:14:02;103100.84;;;19.96;32.09
35918;BME280;22011;59.912;30.300;2023-05-20T12:16:32;103109.47;;;19.99;31.99
35918;BME280;22011;59.912;30.300;2023-05-20T12:18:59;103105.06;;;19.98;31.91
35918;BME280;22011;59.912;30.300;2023-05-20T12:21:27;103096.13;;;19.89;32.01
35918;BME280;22011;59.912;30.300;2023-05-20T12:23:57;103085.13;;;19.91;31.78
35918;BME280;22011;59.912;30.300;2023-05-20T12:26:25;103089.00;;;19.97;31.96
35918;BME280;22011;59.912;30.300;2023-05-20T12:28:54;103094.09;;;20.00;31.81
35918;BME280;22011;59.912;30.300;2023-05-20T12:31:23;103090.38;;;19.92;31.91
35918;BME280;22011;59.912;30.300;2023-05-20T12:33:50;103087.00;;;19.90;31.56
35918;BME280;22011;59.912;30.300;2023-05-20T12:36:18;103080.22;;;19.86;31.76
35918;BME280;22011;59.912;30.300;2023-05-20T12:38:45;103078.19;;;19.88;31.85
35918;BME280;22011;59.912;30.300;2023-05-20T12:41:13;103065.69;;;19.79;32.16
35918;BME280;22011;59.912;30.300;2023-05-20T12:43:40;103067.06;;;19.75;31.88
35918;BME280;22011;59.912;30.300;2023-05-20T12:46:09;103067.75;;;19.69;32.15
35918;BME280;22011;59.912;30.300;2023-05-20T12:48:37;103073.50;;;19.66;31.51